sensor_id;sensor_type;location;lat;lon;timestamp;P1;durP1;ratioP1;P2;durP2;ratioP2
77880;SDS011;67077;50.298;18.996;2024-03-29T00:03:25;7.70;;;3.10;;
77880;SDS011;67077;50.298;18.996;2024-03-29T00:05:52;5.80;;;3.10;;
77880;SDS011;67077;50.298;18.996;2024-03-29T00:08:20;5.80;;;3.40;;
77880;SDS011;67077;50.298;18.996;2024-03-29T00:10:48;7.50;;;3.60;;
77880;SDS011;67077;50.298;18.996;2024-03-29T00:13:15;9.20;;;3.90;;
77880;SDS011;67077;50.298;18.996;2024-03-29T00:15:45;6.50;;;3.90;;
77880;SDS011;67077;50.298;18.996;2024-03-29T00:18:13;10.90;;;4.70;;
77880;SDS011;67077;50.298;18.996;2024-03-29T00:20:59;15.60;;;6.40;;
77880;SDS011;67077;50.298;18.996;2024-03-29T00:23:27;12.90;;;5.80;;
77880;SDS011;67077;50.298;18.996;2024-03-29T00:25:55;12.10;;;6.30;;
77880;SDS011;67077;50.298;18.996;2024-03-29T00:28:25;12.70;;;6.70;;
77880;SDS011;67077;50.298;18.996;2024-03-29T00:30:53;11.30;;;6.90;;
77880;SDS011;67077;50.298;18.996;2024-03-29T00:33:20;10.80;;;6.20;;
77880;SDS011;67077;50.298;18.996;2024-03-29T00:38:53;12.40;;;6.20;;
77880;SDS011;67077;50.298;18.996;2024-03-29T00:41:21;10.50;;;5.20;;
77880;SDS011;67077;50.298;18.996;2024-03-29T00:43:48;9.10;;;5.60;;
77880;SDS011;67077;50.298;18.996;2024-03-29T00:46:16;9.70;;;5.30;;
77880;SDS011;67077;50.298;18.996;2024-03-29T00:48:43;11.00;;;6.00;;
77880;SDS011;67077;50.298;18.996;2024-03-29T00:51:14;9.40;;;5.70;;
77880;SDS011;67077;50.298;18.996;2024-03-29T00:53:41;10.60;;;6.40;;
77880;SDS011;67077;50.298;18.996;2024-03-29T00:56:09;10.60;;;6.20;;
77880;SDS011;67077;50.298;18.996;2024-03-29T00:58:36;10.60;;;6.60;;
77880;SDS011;67077;50.298;18.996;2024-03-29T01:01:04;13.00;;;7.50;;
77880;SDS011;67077;50.298;18.996;2024-03-29T01:03:32;11.70;;;7.00;;
77880;SDS011;67077;50.298;18.996;2024-03-29T01:05:59;14.40;;;7.20;;
77880;SDS011;67077;50.298;18.996;2024-03-29T01:08:27;12.00;;;7.30;;
77880;SDS011;67077;50.298;18.996;2024-03-29T01:10:54;16.00;;;8.40;;
77880;SDS011;67077;50.298;18.996;2024-03-29T01:13:22;15.20;;;8.40;;
77880;SDS011;67077;50.298;18.996;2024-03-29T01:15:50;15.60;;;9.00;;
77880;SDS011;67077;50.298;18.996;2024-03-29T01:18:17;16.40;;;9.80;;
77880;SDS011;67077;50.298;18.996;2024-03-29T01:20:45;18.90;;;10.70;;
77880;SDS011;67077;50.298;18.996;2024-03-29T01:23:12;19.10;;;9.70;;
77880;SDS011;67077;50.298;18.996;2024-03-29T01:25:40;18.70;;;9.90;;
77880;SDS011;67077;50.298;18.996;2024-03-29T01:28:07;17.30;;;9.30;;
77880;SDS011;67077;50.298;18.996;2024-03-29T01:30:35;18.20;;;10.00;;
77880;SDS011;67077;50.298;18.996;2024-03-29T01:33:03;20.30;;;10.30;;
77880;SDS011;67077;50.298;18.996;2024-03-29T01:35:31;20.10;;;10.40;;
77880;SDS011;67077;50.298;18.996;2024-03-29T01:37:58;20.70;;;10.10;;
77880;SDS011;67077;50.298;18.996;2024-03-29T01:40:26;17.30;;;9.60;;
77880;SDS011;67077;50.298;18.996;2024-03-29T01:42:53;15.70;;;8.90;;
77880;SDS011;67077;50.298;18.996;2024-03-29T01:45:21;16.10;;;9.00;;
77880;SDS011;67077;50.298;18.996;2024-03-29T01:50:56;14.80;;;8.20;;
77880;SDS011;67077;50.298;18.996;2024-03-29T01:53:25;17.30;;;8.40;;
77880;SDS011;67077;50.298;18.996;2024-03-29T01:55:53;16.30;;;8.30;;
77880;SDS011;67077;50.298;18.996;2024-03-29T01:58:21;14.70;;;8.30;;
77880;SDS011;67077;50.298;18.996;2024-03-29T02:00:51;15.60;;;8.70;;
77880;SDS011;67077;50.298;18.996;2024-03-29T02:03:23;15.70;;;8.20;;
77880;SDS011;67077;50.298;18.996;2024-03-29T02:05:51;17.90;;;8.90;;
77880;SDS011;67077;50.298;18.996;2024-03-29T02:08:20;18.60;;;9.10;;
77880;SDS011;67077;50.298;18.996;2024-03-29T02:10:48;17.90;;;9.00;;
77880;SDS011;67077;50.298;18.996;2024-03-29T02:13:17;21.10;;;10.30;;
77880;SDS011;67077;50.298;18.996;2024-03-29T02:15:45;20.60;;;10.20;;
77880;SDS011;67077;50.298;18.996;2024-03-29T02:18:13;17.50;;;10.00;;
77880;SDS011;67077;50.298;18.996;2024-03-29T02:20:40;16.60;;;9.40;;
77880;SDS011;67077;50.298;18.996;2024-03-29T02:23:13;22.60;;;10.30;;
77880;SDS011;67077;50.298;18.996;2024-03-29T02:25:43;18.10;;;9.20;;
77880;SDS011;67077;50.298;18.996;2024-03-29T02:28:12;16.50;;;8.00;;
77880;SDS011;67077;50.298;18.996;2024-03-29T02:30:40;16.20;;;7.50;;
77880;SDS011;67077;50.298;18.996;2024-03-29T02:33:08;12.40;;;7.10;;
77880;SDS011;67077;50.298;18.996;2024-03-29T02:35:35;13.30;;;6.60;;
77880;SDS011;67077;50.298;18.996;2024-03-29T02:38:03;11.60;;;5.90;;
77880;SDS011;67077;50.298;18.996;2024-03-29T02:40:31;10.60;;;5.90;;
77880;SDS011;67077;50.298;18.996;2024-03-29T02:42:58;11.20;;;5.70;;
77880;SDS011;67077;50.298;18.996;2024-03-29T02:45:26;10.30;;;6.90;;
77880;SDS011;67077;50.298;18.996;2024-03-29T02:47:53;14.20;;;8.40;;
77880;SDS011;67077;50.298;18.996;2024-03-29T02:50:21;13.20;;;8.60;;
77880;SDS011;67077;50.298;18.996;2024-03-29T02:52:49;15.40;;;9.70;;
77880;SDS011;67077;50.298;18.996;2024-03-29T02:55:16;13.00;;;9.10;;
77880;SDS011;67077;50.298;18.996;2024-03-29T02:57:44;12.60;;;8.70;;
77880;SDS011;67077;50.298;18.996;2024-03-29T03:00:12;13.90;;;8.70;;
77880;SDS011;67077;50.298;18.996;2024-03-29T03:02:40;12.80;;;7.80;;
77880;SDS011;67077;50.298;18.996;2024-03-29T03:05:08;12.60;;;8.20;;
77880;SDS011;67077;50.298;18.996;2024-03-29T03:07:36;12.00;;;7.80;;
77880;SDS011;67077;50.298;18.996;2024-03-29T03:10:23;11.50;;;7.00;;
77880;SDS011;67077;50.298;18.996;2024-03-29T03:13:10;10.60;;;6.60;;
77880;SDS011;67077;50.298;18.996;2024-03-29T03:15:37;9.80;;;7.00;;
77880;SDS011;67077;50.298;18.996;2024-03-29T03:18:05;10.40;;;6.20;;
77880;SDS011;67077;50.298;18.996;2024-03-29T03:20:33;9.80;;;6.30;;
77880;SDS011;67077;50.298;18.996;2024-03-29T03:23:00;9.20;;;5.80;;
77880;SDS011;67077;50.298;18.996;2024-03-29T03:25:28;8.50;;;5.50;;
77880;SDS011;67077;50.298;18.996;2024-03-29T03:27:55;8.00;;;5.50;;
77880;SDS011;67077;50.298;18.996;2024-03-29T03:30:23;8.90;;;5.70;;
77880;SDS011;67077;50.298;18.996;2024-03-29T03:32:51;9.80;;;5.80;;
77880;SDS011;67077;50.298;18.996;2024-03-29T03:35:18;8.60;;;5.60;;
77880;SDS011;67077;50.298;18.996;2024-03-29T03:40:35;11.90;;;6.50;;
77880;SDS011;67077;50.298;18.996;2024-03-29T03:43:07;11.20;;;6.60;;
77880;SDS011;67077;50.298;18.996;2024-03-29T03:45:35;10.50;;;6.80;;
77880;SDS011;67077;50.298;18.996;2024-03-29T03:48:07;12.50;;;7.40;;
77880;SDS011;67077;50.298;18.996;2024-03-29T03:50:38;13.00;;;7.40;;
77880;SDS011;67077;50.298;18.996;2024-03-29T03:53:05;14.70;;;8.00;;
77880;SDS011;67077;50.298;18.996;2024-03-29T03:55:36;12.50;;;8.00;;
77880;SDS011;67077;50.298;18.996;2024-03-29T03:58:04;10.40;;;7.10;;
77880;SDS011;67077;50.298;18.996;2024-03-29T04:00:50;10.80;;;6.70;;
77880;SDS011;67077;50.298;18.996;2024-03-29T04:03:18;10.00;;;6.10;;
77880;SDS011;67077;50.298;18.996;2024-03-29T04:05:46;7.90;;;5.40;;
77880;SDS011;67077;50.298;18.996;2024-03-29T04:08:14;8.10;;;5.50;;
77880;SDS011;67077;50.298;18.996;2024-03-29T04:10:43;9.50;;;5.50;;
77880;SDS011;67077;50.298;18.996;2024-03-29T04:13:10;8.50;;;5.00;;
77880;SDS011;67077;50.298;18.996;2024-03-29T04:15:38;10.90;;;5.70;;
77880;SDS011;67077;50.298;18.996;2024-03-29T04:18:05;8.30;;;4.70;;
77880;SDS011;67077;50.298;18.996;2024-03-29T04:20:33;8.20;;;4.70;;
77880;SDS011;67077;50.298;18.996;2024-03-29T04:23:03;6.90;;;4.50;;
77880;SDS011;67077;50.298;18.996;2024-03-29T04:25:32;6.00;;;3.90;;
77880;SDS011;67077;50.298;18.996;2024-03-29T04:28:00;7.90;;;4.30;;
77880;SDS011;67077;50.298;18.996;2024-03-29T04:30:27;6.20;;;4.30;;
77880;SDS011;67077;50.298;18.996;2024-03-29T04:32:55;6.90;;;4.40;;
77880;SDS011;67077;50.298;18.996;2024-03-29T04:35:22;7.50;;;4.40;;
77880;SDS011;67077;50.298;18.996;2024-03-29T04:37:50;7.30;;;4.50;;
77880;SDS011;67077;50.298;18.996;2024-03-29T04:40:18;7.80;;;4.20;;
77880;SDS011;67077;50.298;18.996;2024-03-29T04:42:45;8.10;;;4.20;;
77880;SDS011;67077;50.298;18.996;2024-03-29T04:45:31;7.60;;;4.00;;
77880;SDS011;67077;50.298;18.996;2024-03-29T04:47:59;6.00;;;4.10;;
77880;SDS011;67077;50.298;18.996;2024-03-29T04:50:45;7.80;;;4.10;;
77880;SDS011;67077;50.298;18.996;2024-03-29T04:53:13;7.10;;;3.80;;
77880;SDS011;67077;50.298;18.996;2024-03-29T04:55:41;5.20;;;3.30;;
77880;SDS011;67077;50.298;18.996;2024-03-29T04:58:09;5.20;;;3.20;;
77880;SDS011;67077;50.298;18.996;2024-03-29T05:00:37;5.30;;;3.80;;
77880;SDS011;67077;50.298;18.996;2024-03-29T05:03:04;6.40;;;3.80;;
77880;SDS011;67077;50.298;18.996;2024-03-29T05:05:52;5.40;;;3.70;;
77880;SDS011;67077;50.298;18.996;2024-03-29T05:08:22;8.30;;;3.90;;
77880;SDS011;67077;50.298;18.996;2024-03-29T05:10:52;5.40;;;3.50;;
77880;SDS011;67077;50.298;18.996;2024-03-29T05:13:20;7.70;;;3.60;;
77880;SDS011;67077;50.298;18.996;2024-03-29T05:15:48;4.70;;;3.30;;
77880;SDS011;67077;50.298;18.996;2024-03-29T05:18:15;5.20;;;3.30;;
77880;SDS011;67077;50.298;18.996;2024-03-29T05:20:43;5.80;;;3.60;;
77880;SDS011;67077;50.298;18.996;2024-03-29T05:23:16;6.60;;;3.50;;
77880;SDS011;67077;50.298;18.996;2024-03-29T05:25:44;5.60;;;3.00;;
77880;SDS011;67077;50.298;18.996;2024-03-29T05:28:11;4.90;;;2.90;;
77880;SDS011;67077;50.298;18.996;2024-03-29T05:30:39;5.80;;;3.30;;
77880;SDS011;67077;50.298;18.996;2024-03-29T05:33:06;5.50;;;2.80;;
77880;SDS011;67077;50.298;18.996;2024-03-29T05:35:34;6.70;;;3.20;;
77880;SDS011;67077;50.298;18.996;2024-03-29T05:38:02;4.20;;;2.70;;
77880;SDS011;67077;50.298;18.996;2024-03-29T05:40:51;6.70;;;3.00;;
77880;SDS011;67077;50.298;18.996;2024-03-29T05:43:19;4.80;;;3.00;;
77880;SDS011;67077;50.298;18.996;2024-03-29T05:45:47;5.10;;;2.60;;
77880;SDS011;67077;50.298;18.996;2024-03-29T05:51:06;4.10;;;2.30;;
77880;SDS011;67077;50.298;18.996;2024-03-29T05:53:33;3.00;;;2.20;;
77880;SDS011;67077;50.298;18.996;2024-03-29T05:56:01;4.10;;;2.40;;
77880;SDS011;67077;50.298;18.996;2024-03-29T05:58:28;3.00;;;2.10;;
77880;SDS011;67077;50.298;18.996;2024-03-29T06:00:57;4.00;;;2.40;;
77880;SDS011;67077;50.298;18.996;2024-03-29T06:03:24;4.70;;;2.20;;
77880;SDS011;67077;50.298;18.996;2024-03-29T06:05:55;3.50;;;2.00;;
77880;SDS011;67077;50.298;18.996;2024-03-29T06:08:24;3.20;;;1.90;;
77880;SDS011;67077;50.298;18.996;2024-03-29T06:10:54;2.60;;;1.80;;
77880;SDS011;67077;50.298;18.996;2024-03-29T06:13:22;2.60;;;1.90;;
77880;SDS011;67077;50.298;18.996;2024-03-29T06:16:09;4.70;;;1.80;;
77880;SDS011;67077;50.298;18.996;2024-03-29T06:18:55;4.30;;;2.20;;
77880;SDS011;67077;50.298;18.996;2024-03-29T06:21:42;2.90;;;1.70;;
77880;SDS011;67077;50.298;18.996;2024-03-29T06:24:10;1.90;;;1.50;;
77880;SDS011;67077;50.298;18.996;2024-03-29T06:29:09;3.10;;;1.80;;
77880;SDS011;67077;50.298;18.996;2024-03-29T06:31:37;2.70;;;1.80;;
77880;SDS011;67077;50.298;18.996;2024-03-29T06:34:05;2.90;;;1.80;;
77880;SDS011;67077;50.298;18.996;2024-03-29T06:36:32;2.90;;;1.80;;
77880;SDS011;67077;50.298;18.996;2024-03-29T06:39:02;4.20;;;1.90;;
77880;SDS011;67077;50.298;18.996;2024-03-29T06:41:31;4.60;;;2.10;;
77880;SDS011;67077;50.298;18.996;2024-03-29T06:43:58;3.20;;;1.80;;
77880;SDS011;67077;50.298;18.996;2024-03-29T06:46:26;3.20;;;1.80;;
77880;SDS011;67077;50.298;18.996;2024-03-29T06:48:54;4.30;;;2.00;;
77880;SDS011;67077;50.298;18.996;2024-03-29T06:51:22;3.40;;;1.80;;
77880;SDS011;67077;50.298;18.996;2024-03-29T06:53:50;3.60;;;1.60;;
77880;SDS011;67077;50.298;18.996;2024-03-29T06:56:17;2.90;;;1.70;;
77880;SDS011;67077;50.298;18.996;2024-03-29T06:58:45;2.40;;;1.60;;
77880;SDS011;67077;50.298;18.996;2024-03-29T07:01:13;2.90;;;1.80;;
77880;SDS011;67077;50.298;18.996;2024-03-29T07:03:41;4.60;;;2.00;;
77880;SDS011;67077;50.298;18.996;2024-03-29T07:06:08;3.90;;;1.80;;
77880;SDS011;67077;50.298;18.996;2024-03-29T07:08:36;2.60;;;1.80;;
77880;SDS011;67077;50.298;18.996;2024-03-29T07:11:04;3.80;;;2.00;;
77880;SDS011;67077;50.298;18.996;2024-03-29T07:13:31;4.70;;;2.00;;
77880;SDS011;67077;50.298;18.996;2024-03-29T07:15:59;4.10;;;1.80;;
77880;SDS011;67077;50.298;18.996;2024-03-29T07:18:27;3.50;;;1.80;;
77880;SDS011;67077;50.298;18.996;2024-03-29T07:20:55;2.60;;;1.70;;
77880;SDS011;67077;50.298;18.996;2024-03-29T07:23:23;3.00;;;1.90;;
77880;SDS011;67077;50.298;18.996;2024-03-29T07:25:59;2.20;;;1.60;;
77880;SDS011;67077;50.298;18.996;2024-03-29T07:28:30;2.70;;;1.60;;
77880;SDS011;67077;50.298;18.996;2024-03-29T07:31:16;1.90;;;1.40;;
77880;SDS011;67077;50.298;18.996;2024-03-29T07:36:31;4.60;;;1.80;;
77880;SDS011;67077;50.298;18.996;2024-03-29T07:39:02;4.00;;;1.90;;
77880;SDS011;67077;50.298;18.996;2024-03-29T07:41:31;4.30;;;1.40;;
77880;SDS011;67077;50.298;18.996;2024-03-29T07:43:59;4.70;;;1.70;;
77880;SDS011;67077;50.298;18.996;2024-03-29T07:46:32;5.50;;;1.40;;
77880;SDS011;67077;50.298;18.996;2024-03-29T07:49:05;5.00;;;1.80;;
77880;SDS011;67077;50.298;18.996;2024-03-29T07:51:33;3.00;;;1.40;;
77880;SDS011;67077;50.298;18.996;2024-03-29T07:54:01;3.10;;;1.40;;
77880;SDS011;67077;50.298;18.996;2024-03-29T07:56:29;4.20;;;1.50;;
77880;SDS011;67077;50.298;18.996;2024-03-29T07:58:57;3.70;;;1.50;;
77880;SDS011;67077;50.298;18.996;2024-03-29T08:01:24;3.30;;;1.60;;
77880;SDS011;67077;50.298;18.996;2024-03-29T08:03:52;2.50;;;1.50;;
77880;SDS011;67077;50.298;18.996;2024-03-29T08:06:20;4.60;;;1.20;;
77880;SDS011;67077;50.298;18.996;2024-03-29T08:08:50;2.90;;;1.30;;
77880;SDS011;67077;50.298;18.996;2024-03-29T08:11:18;5.30;;;1.50;;
77880;SDS011;67077;50.298;18.996;2024-03-29T08:13:46;3.50;;;1.30;;
77880;SDS011;67077;50.298;18.996;2024-03-29T08:16:13;4.30;;;1.50;;
77880;SDS011;67077;50.298;18.996;2024-03-29T08:18:45;2.50;;;1.20;;
77880;SDS011;67077;50.298;18.996;2024-03-29T08:21:14;4.20;;;1.40;;
77880;SDS011;67077;50.298;18.996;2024-03-29T08:23:42;3.50;;;1.50;;
77880;SDS011;67077;50.298;18.996;2024-03-29T08:28:44;3.10;;;1.30;;
77880;SDS011;67077;50.298;18.996;2024-03-29T08:31:13;3.50;;;1.20;;
77880;SDS011;67077;50.298;18.996;2024-03-29T08:33:41;4.10;;;1.20;;
77880;SDS011;67077;50.298;18.996;2024-03-29T08:36:10;4.40;;;1.40;;
77880;SDS011;67077;50.298;18.996;2024-03-29T08:38:39;4.20;;;1.20;;
77880;SDS011;67077;50.298;18.996;2024-03-29T08:41:10;4.10;;;1.20;;
77880;SDS011;67077;50.298;18.996;2024-03-29T08:43:38;3.70;;;1.30;;
77880;SDS011;67077;50.298;18.996;2024-03-29T08:46:05;1.80;;;1.20;;
77880;SDS011;67077;50.298;18.996;2024-03-29T08:48:34;6.20;;;1.30;;
77880;SDS011;67077;50.298;18.996;2024-03-29T08:51:04;2.40;;;1.20;;
77880;SDS011;67077;50.298;18.996;2024-03-29T08:53:31;3.00;;;1.10;;
77880;SDS011;67077;50.298;18.996;2024-03-29T08:55:59;3.20;;;1.10;;
77880;SDS011;67077;50.298;18.996;2024-03-29T08:58:27;3.50;;;1.20;;
77880;SDS011;67077;50.298;18.996;2024-03-29T09:00:55;3.30;;;1.20;;
77880;SDS011;67077;50.298;18.996;2024-03-29T09:03:23;4.30;;;1.40;;
77880;SDS011;67077;50.298;18.996;2024-03-29T09:05:52;2.80;;;1.00;;
77880;SDS011;67077;50.298;18.996;2024-03-29T09:08:20;2.60;;;1.10;;
77880;SDS011;67077;50.298;18.996;2024-03-29T09:10:47;3.50;;;1.40;;
77880;SDS011;67077;50.298;18.996;2024-03-29T09:13:15;1.20;;;0.80;;
77880;SDS011;67077;50.298;18.996;2024-03-29T09:15:42;4.60;;;1.20;;
77880;SDS011;67077;50.298;18.996;2024-03-29T09:18:10;2.90;;;1.10;;
77880;SDS011;67077;50.298;18.996;2024-03-29T09:20:57;1.90;;;1.10;;
77880;SDS011;67077;50.298;18.996;2024-03-29T09:23:26;3.40;;;1.00;;
77880;SDS011;67077;50.298;18.996;2024-03-29T09:25:57;2.30;;;1.10;;
77880;SDS011;67077;50.298;18.996;2024-03-29T09:28:25;3.10;;;1.40;;
77880;SDS011;67077;50.298;18.996;2024-03-29T09:30:57;3.60;;;1.20;;
77880;SDS011;67077;50.298;18.996;2024-03-29T09:33:26;3.30;;;0.80;;
77880;SDS011;67077;50.298;18.996;2024-03-29T09:35:54;2.80;;;1.00;;
77880;SDS011;67077;50.298;18.996;2024-03-29T09:38:22;2.00;;;0.80;;
77880;SDS011;67077;50.298;18.996;2024-03-29T09:40:50;2.30;;;0.70;;
77880;SDS011;67077;50.298;18.996;2024-03-29T09:43:43;1.50;;;0.80;;
77880;SDS011;67077;50.298;18.996;2024-03-29T09:46:15;1.80;;;0.90;;
77880;SDS011;67077;50.298;18.996;2024-03-29T09:48:44;1.50;;;0.80;;
77880;SDS011;67077;50.298;18.996;2024-03-29T09:51:15;1.60;;;0.70;;
77880;SDS011;67077;50.298;18.996;2024-03-29T09:53:43;4.50;;;0.80;;
77880;SDS011;67077;50.298;18.996;2024-03-29T09:56:11;1.40;;;0.60;;
77880;SDS011;67077;50.298;18.996;2024-03-29T09:58:39;2.80;;;0.70;;
77880;SDS011;67077;50.298;18.996;2024-03-29T10:01:08;1.80;;;0.80;;
77880;SDS011;67077;50.298;18.996;2024-03-29T10:03:40;2.30;;;0.80;;
77880;SDS011;67077;50.298;18.996;2024-03-29T10:06:11;1.50;;;0.90;;
77880;SDS011;67077;50.298;18.996;2024-03-29T10:08:42;1.40;;;0.90;;
77880;SDS011;67077;50.298;18.996;2024-03-29T10:11:10;3.00;;;1.00;;
77880;SDS011;67077;50.298;18.996;2024-03-29T10:13:38;1.90;;;0.80;;
77880;SDS011;67077;50.298;18.996;2024-03-29T10:16:05;2.40;;;1.00;;
77880;SDS011;67077;50.298;18.996;2024-03-29T10:18:33;2.00;;;1.10;;
77880;SDS011;67077;50.298;18.996;2024-03-29T10:21:05;3.60;;;1.10;;
77880;SDS011;67077;50.298;18.996;2024-03-29T10:23:36;3.60;;;1.60;;
77880;SDS011;67077;50.298;18.996;2024-03-29T10:26:04;1.40;;;0.90;;
77880;SDS011;67077;50.298;18.996;2024-03-29T10:28:32;2.60;;;0.80;;
77880;SDS011;67077;50.298;18.996;2024-03-29T10:31:02;2.30;;;0.80;;
77880;SDS011;67077;50.298;18.996;2024-03-29T10:33:31;2.20;;;1.00;;
77880;SDS011;67077;50.298;18.996;2024-03-29T10:36:00;1.90;;;0.80;;
77880;SDS011;67077;50.298;18.996;2024-03-29T10:38:33;1.70;;;0.80;;
77880;SDS011;67077;50.298;18.996;2024-03-29T10:41:01;3.00;;;0.80;;
77880;SDS011;67077;50.298;18.996;2024-03-29T10:43:31;1.10;;;0.80;;
77880;SDS011;67077;50.298;18.996;2024-03-29T10:45:59;1.30;;;0.60;;
77880;SDS011;67077;50.298;18.996;2024-03-29T10:48:28;2.40;;;0.80;;
77880;SDS011;67077;50.298;18.996;2024-03-29T10:50:55;2.70;;;1.10;;
77880;SDS011;67077;50.298;18.996;2024-03-29T10:53:27;1.80;;;0.90;;
77880;SDS011;67077;50.298;18.996;2024-03-29T10:55:57;1.40;;;0.80;;
77880;SDS011;67077;50.298;18.996;2024-03-29T10:58:35;2.60;;;0.80;;
77880;SDS011;67077;50.298;18.996;2024-03-29T11:01:07;2.30;;;1.00;;
77880;SDS011;67077;50.298;18.996;2024-03-29T11:03:55;1.60;;;0.90;;
77880;SDS011;67077;50.298;18.996;2024-03-29T11:06:31;1.30;;;0.90;;
77880;SDS011;67077;50.298;18.996;2024-03-29T11:09:04;2.20;;;0.90;;
77880;SDS011;67077;50.298;18.996;2024-03-29T11:11:41;2.00;;;0.90;;
77880;SDS011;67077;50.298;18.996;2024-03-29T11:14:27;1.10;;;0.80;;
77880;SDS011;67077;50.298;18.996;2024-03-29T11:17:17;1.80;;;0.80;;
77880;SDS011;67077;50.298;18.996;2024-03-29T11:19:45;2.60;;;0.80;;
77880;SDS011;67077;50.298;18.996;2024-03-29T11:25:00;2.20;;;0.60;;
77880;SDS011;67077;50.298;18.996;2024-03-29T11:27:28;2.70;;;0.70;;
77880;SDS011;67077;50.298;18.996;2024-03-29T11:29:56;2.60;;;1.00;;
77880;SDS011;67077;50.298;18.996;2024-03-29T11:32:36;2.50;;;0.80;;
77880;SDS011;67077;50.298;18.996;2024-03-29T11:37:41;1.10;;;0.60;;
77880;SDS011;67077;50.298;18.996;2024-03-29T11:40:12;1.60;;;0.60;;
77880;SDS011;67077;50.298;18.996;2024-03-29T11:42:43;3.00;;;0.90;;
77880;SDS011;67077;50.298;18.996;2024-03-29T11:45:12;1.60;;;0.60;;
77880;SDS011;67077;50.298;18.996;2024-03-29T11:47:40;2.80;;;0.60;;
77880;SDS011;67077;50.298;18.996;2024-03-29T11:50:09;1.20;;;0.80;;
77880;SDS011;67077;50.298;18.996;2024-03-29T11:52:38;1.00;;;0.60;;
77880;SDS011;67077;50.298;18.996;2024-03-29T11:55:06;1.10;;;0.70;;
77880;SDS011;67077;50.298;18.996;2024-03-29T11:57:35;0.80;;;0.70;;
77880;SDS011;67077;50.298;18.996;2024-03-29T12:00:07;1.90;;;0.60;;
77880;SDS011;67077;50.298;18.996;2024-03-29T12:02:53;1.60;;;0.50;;
77880;SDS011;67077;50.298;18.996;2024-03-29T12:05:21;1.40;;;0.80;;
77880;SDS011;67077;50.298;18.996;2024-03-29T12:07:49;1.00;;;0.60;;
77880;SDS011;67077;50.298;18.996;2024-03-29T12:10:37;0.90;;;0.60;;
77880;SDS011;67077;50.298;18.996;2024-03-29T12:13:07;1.90;;;0.60;;
77880;SDS011;67077;50.298;18.996;2024-03-29T12:15:35;1.50;;;0.60;;
77880;SDS011;67077;50.298;18.996;2024-03-29T12:18:03;2.20;;;0.60;;
77880;SDS011;67077;50.298;18.996;2024-03-29T12:20:35;2.70;;;0.60;;
77880;SDS011;67077;50.298;18.996;2024-03-29T12:23:06;1.30;;;0.80;;
77880;SDS011;67077;50.298;18.996;2024-03-29T12:25:41;1.10;;;0.60;;
77880;SDS011;67077;50.298;18.996;2024-03-29T12:28:11;0.80;;;0.60;;
77880;SDS011;67077;50.298;18.996;2024-03-29T12:30:40;2.80;;;0.60;;
77880;SDS011;67077;50.298;18.996;2024-03-29T12:33:16;1.10;;;0.60;;
77880;SDS011;67077;50.298;18.996;2024-03-29T12:35:48;1.20;;;0.50;;
77880;SDS011;67077;50.298;18.996;2024-03-29T12:38:22;0.80;;;0.50;;
77880;SDS011;67077;50.298;18.996;2024-03-29T12:40:50;2.00;;;0.80;;
77880;SDS011;67077;50.298;18.996;2024-03-29T12:43:22;2.20;;;0.60;;
77880;SDS011;67077;50.298;18.996;2024-03-29T12:45:50;1.10;;;0.60;;
77880;SDS011;67077;50.298;18.996;2024-03-29T12:48:20;2.00;;;0.60;;
77880;SDS011;67077;50.298;18.996;2024-03-29T12:51:07;0.70;;;0.50;;
77880;SDS011;67077;50.298;18.996;2024-03-29T12:53:37;1.00;;;0.70;;
77880;SDS011;67077;50.298;18.996;2024-03-29T12:56:07;0.90;;;0.50;;
77880;SDS011;67077;50.298;18.996;2024-03-29T12:58:34;2.00;;;0.60;;
77880;SDS011;67077;50.298;18.996;2024-03-29T13:01:02;0.90;;;0.60;;
77880;SDS011;67077;50.298;18.996;2024-03-29T13:03:30;0.80;;;0.60;;
77880;SDS011;67077;50.298;18.996;2024-03-29T13:06:17;1.10;;;0.50;;
77880;SDS011;67077;50.298;18.996;2024-03-29T13:08:44;1.10;;;0.60;;
77880;SDS011;67077;50.298;18.996;2024-03-29T13:11:12;1.30;;;0.60;;
77880;SDS011;67077;50.298;18.996;2024-03-29T13:13:40;1.40;;;0.60;;
77880;SDS011;67077;50.298;18.996;2024-03-29T13:16:08;1.20;;;0.70;;
77880;SDS011;67077;50.298;18.996;2024-03-29T13:18:37;2.30;;;0.60;;
77880;SDS011;67077;50.298;18.996;2024-03-29T13:21:05;2.60;;;0.70;;
77880;SDS011;67077;50.298;18.996;2024-03-29T13:23:32;4.00;;;1.00;;
77880;SDS011;67077;50.298;18.996;2024-03-29T13:26:01;2.30;;;0.60;;
77880;SDS011;67077;50.298;18.996;2024-03-29T13:28:28;2.10;;;0.70;;
77880;SDS011;67077;50.298;18.996;2024-03-29T13:30:56;1.60;;;0.70;;
77880;SDS011;67077;50.298;18.996;2024-03-29T13:33:24;2.40;;;0.90;;
77880;SDS011;67077;50.298;18.996;2024-03-29T13:38:39;2.50;;;0.60;;
77880;SDS011;67077;50.298;18.996;2024-03-29T13:41:06;1.40;;;0.60;;
77880;SDS011;67077;50.298;18.996;2024-03-29T13:43:36;1.30;;;0.60;;
77880;SDS011;67077;50.298;18.996;2024-03-29T13:46:09;1.10;;;0.60;;
77880;SDS011;67077;50.298;18.996;2024-03-29T13:48:37;1.70;;;0.70;;
77880;SDS011;67077;50.298;18.996;2024-03-29T13:51:06;1.30;;;0.70;;
77880;SDS011;67077;50.298;18.996;2024-03-29T13:53:34;3.40;;;0.70;;
77880;SDS011;67077;50.298;18.996;2024-03-29T13:56:02;1.40;;;0.70;;
77880;SDS011;67077;50.298;18.996;2024-03-29T13:58:31;1.20;;;0.60;;
77880;SDS011;67077;50.298;18.996;2024-03-29T14:00:58;1.50;;;0.80;;
77880;SDS011;67077;50.298;18.996;2024-03-29T14:03:27;2.80;;;0.60;;
77880;SDS011;67077;50.298;18.996;2024-03-29T14:05:54;1.40;;;0.80;;
77880;SDS011;67077;50.298;18.996;2024-03-29T14:08:22;3.20;;;0.80;;
77880;SDS011;67077;50.298;18.996;2024-03-29T14:10:50;2.30;;;0.80;;
77880;SDS011;67077;50.298;18.996;2024-03-29T14:13:20;1.60;;;0.70;;
77880;SDS011;67077;50.298;18.996;2024-03-29T14:15:47;2.60;;;0.70;;
77880;SDS011;67077;50.298;18.996;2024-03-29T14:18:15;1.50;;;0.70;;
77880;SDS011;67077;50.298;18.996;2024-03-29T14:20:43;2.90;;;0.60;;
77880;SDS011;67077;50.298;18.996;2024-03-29T14:23:11;1.80;;;0.70;;
77880;SDS011;67077;50.298;18.996;2024-03-29T14:25:44;2.60;;;0.80;;
77880;SDS011;67077;50.298;18.996;2024-03-29T14:28:13;2.50;;;0.80;;
77880;SDS011;67077;50.298;18.996;2024-03-29T14:30:41;2.80;;;0.70;;
77880;SDS011;67077;50.298;18.996;2024-03-29T14:33:09;1.80;;;0.90;;
77880;SDS011;67077;50.298;18.996;2024-03-29T14:35:36;1.80;;;0.70;;
77880;SDS011;67077;50.298;18.996;2024-03-29T14:38:25;2.70;;;1.00;;
77880;SDS011;67077;50.298;18.996;2024-03-29T14:40:53;3.80;;;1.00;;
77880;SDS011;67077;50.298;18.996;2024-03-29T14:43:40;3.20;;;0.90;;
77880;SDS011;67077;50.298;18.996;2024-03-29T14:46:07;1.90;;;0.90;;
77880;SDS011;67077;50.298;18.996;2024-03-29T14:48:35;3.30;;;0.90;;
77880;SDS011;67077;50.298;18.996;2024-03-29T14:51:21;2.70;;;0.80;;
77880;SDS011;67077;50.298;18.996;2024-03-29T14:53:49;2.40;;;0.70;;
77880;SDS011;67077;50.298;18.996;2024-03-29T14:56:36;2.80;;;0.90;;
77880;SDS011;67077;50.298;18.996;2024-03-29T14:59:04;1.70;;;0.80;;
77880;SDS011;67077;50.298;18.996;2024-03-29T15:01:33;2.50;;;0.90;;
77880;SDS011;67077;50.298;18.996;2024-03-29T15:04:19;4.70;;;1.30;;
77880;SDS011;67077;50.298;18.996;2024-03-29T15:06:46;3.70;;;1.10;;
77880;SDS011;67077;50.298;18.996;2024-03-29T15:09:16;2.70;;;0.90;;
77880;SDS011;67077;50.298;18.996;2024-03-29T15:11:44;4.20;;;1.10;;
77880;SDS011;67077;50.298;18.996;2024-03-29T15:14:11;2.50;;;1.00;;
77880;SDS011;67077;50.298;18.996;2024-03-29T15:16:39;3.30;;;1.10;;